Yellow Mule RAWS (NWS)

Elevation
9200ft
Aggregated by Synoptic Data
Date/Time Wind Direction Wind Speed knots Wind Gust knots RH % Accumulated Precip Inches Air Temp Fahrenheit
2024-02-25 00:04 S 10 30 61 0.28 25
2024-02-24 23:04 SSE 11 29 60 0.28 25
2024-02-24 22:04 SSW 8 29 58 0.28 26
2024-02-24 21:04 SE 11 29 59 0.28 26
2024-02-24 20:04 S 10 33 60 0.28 25
2024-02-24 19:04 SSE 12 30 64 0.28 25
2024-02-24 18:04 SSE 14 33 59 0.28 25
2024-02-24 17:04 SSW 6 29 55 0.28 27
2024-02-24 16:04 S 15 30 52 0.28 28
2024-02-24 15:04 SSE 16 33 54 0.28 27
2024-02-24 14:04 S 23 34 55 0.28 26
2024-02-24 13:04 S 11 30 53 0.28 26
2024-02-24 12:04 S 15 36 52 0.28 28
2024-02-24 11:04 S 7 30 55 0.28 26
2024-02-24 10:04 SSE 9 27 61 0.28 24
2024-02-24 09:04 S 12 30 65 0.28 22
2024-02-24 08:04 SSE 7 18 60 0.28 22
2024-02-24 07:04 S 8 25 62 0.28 21
2024-02-24 06:04 S 14 28 63 0.28 20
2024-02-24 05:04 SSW 20 36 65 0.28 20
2024-02-24 04:04 SSW 17 41 64 0.28 19
2024-02-24 03:04 SSW 26 35 65 0.28 20
2024-02-24 02:04 SSW 25 32 62 0.28 20
2024-02-24 01:04 SSW 21 32 60 0.28 20
2024-02-24 00:04 SSW 18 29 58 0.28 20
2024-02-23 23:04 S 9 17 65 0.28 18
2024-02-23 22:04 S 7 14 56 0.28 19
2024-02-23 21:04 S 9 17 54 0.28 18
2024-02-23 20:04 SSW 9 14 51 0.28 18
2024-02-23 19:04 S 11 21 51 0.28 19
2024-02-23 18:04 SSW 10 20 49 0.28 20
2024-02-23 17:04 SSW 13 19 49 0.28 23
2024-02-23 16:04 SSW 12 21 50 0.28 24
2024-02-23 15:04 SSW 13 22 51 0.28 25
2024-02-23 14:04 SW 13 20 50 0.28 25
2024-02-23 13:04 SW 14 23 54 0.28 24
2024-02-23 12:04 SW 11 19 52 0.28 24
2024-02-23 11:04 SSW 10 22 58 0.28 23
2024-02-23 10:04 SSW 13 22 65 0.28 20
2024-02-23 09:04 SW 17 24 76 0.28 17
2024-02-23 08:04 SW 17 26 87 0.28 14
2024-02-23 07:04 SW 16 22 89 0.28 14
2024-02-23 06:04 SW 11 21 88 0.28 14
2024-02-23 05:04 SSW 14 20 87 0.28 14
2024-02-23 04:04 SSW 11 20 83 0.28 14
2024-02-23 03:04 SSW 14 23 80 0.28 15
2024-02-23 02:04 SSW 16 25 80 0.28 16
2024-02-23 01:04 SSW 15 24 83 0.28 17
2024-02-23 00:04 SSW 17 27 84 0.28 17